Time;durP1;ratioP1;P1;durP2;ratioP2;P2;SDS_P1;SDS_P2;PMS_P1;PMS_P2;Temp;Humidity;BMP_temperature;BMP_pressure;BME280_temperature;BME280_humidity;BME280_pressure;Samples;Min_cycle;Max_cycle;Signal;HPM_P1;HPM_P2
2022/12/07 00:01:09;;;;;;;6.57;5.30;;;;;;;;;;4877411;29;20186;-86
2022/12/07 00:03:36;;;;;;;7.07;5.20;;;;;;;;;;4864317;29;20171;-85
2022/12/07 00:06:02;;;;;;;8.60;6.13;;;;;;;;;;4876324;29;20253;-89
2022/12/07 00:08:29;;;;;;;7.87;5.50;;;;;;;;;;4895609;29;20182;-85
2022/12/07 00:10:55;;;;;;;6.67;5.20;;;;;;;;;;4879278;29;20285;-86
2022/12/07 00:13:21;;;;;;;6.47;5.40;;;;;;;;;;4877884;29;20190;-86
2022/12/07 00:15:47;;;;;;;5.90;5.23;;;;;;;;;;4878887;29;20198;-85
2022/12/07 00:18:13;;;;;;;6.03;5.03;;;;;;;;;;4879441;29;20193;-88
2022/12/07 00:20:39;;;;;;;5.73;5.17;;;;;;;;;;4879506;29;20246;-86
2022/12/07 00:23:05;;;;;;;7.77;5.53;;;;;;;;;;4879607;29;20241;-87
2022/12/07 00:25:31;;;;;;;5.77;5.10;;;;;;;;;;4879956;29;20642;-87
2022/12/07 00:27:57;;;;;;;5.30;4.80;;;;;;;;;;4879814;29;20181;-84
2022/12/07 00:30:24;;;;;;;6.07;5.37;;;;;;;;;;4878046;29;20182;-85
2022/12/07 00:32:50;;;;;;;8.13;5.43;;;;;;;;;;4881630;29;20189;-84
2022/12/07 00:35:16;;;;;;;5.60;5.07;;;;;;;;;;4880418;29;20286;-86
2022/12/07 00:37:42;;;;;;;6.57;5.70;;;;;;;;;;4879317;29;20189;-86
2022/12/07 00:40:08;;;;;;;5.60;5.07;;;;;;;;;;4878564;29;20186;-85
2022/12/07 00:42:34;;;;;;;7.43;5.40;;;;;;;;;;4874877;29;20233;-85
2022/12/07 00:45:00;;;;;;;7.17;5.37;;;;;;;;;;4883560;29;20175;-86
2022/12/07 00:47:26;;;;;;;5.93;5.30;;;;;;;;;;4878811;29;20781;-84
2022/12/07 00:49:52;;;;;;;6.57;5.73;;;;;;;;;;4878469;29;20174;-85
2022/12/07 00:52:18;;;;;;;7.27;5.53;;;;;;;;;;4878171;29;20182;-90
2022/12/07 00:54:44;;;;;;;5.97;5.40;;;;;;;;;;4895902;29;20269;-86
2022/12/07 00:57:10;;;;;;;5.67;5.17;;;;;;;;;;4878222;29;20232;-86
2022/12/07 00:59:36;;;;;;;6.90;5.60;;;;;;;;;;4876132;29;20187;-84
2022/12/07 01:02:02;;;;;;;7.40;6.03;;;;;;;;;;4873985;29;20190;-85
2022/12/07 01:04:29;;;;;;;11.97;5.53;;;;;;;;;;4859950;29;20274;-86
2022/12/07 01:06:55;;;;;;;6.37;5.27;;;;;;;;;;4858243;29;20738;-85
2022/12/07 01:09:21;;;;;;;7.47;5.10;;;;;;;;;;4861944;29;20186;-85
2022/12/07 01:11:47;;;;;;;6.43;5.30;;;;;;;;;;4870417;29;20205;-83
2022/12/07 01:14:13;;;;;;;6.60;5.90;;;;;;;;;;4877507;29;20708;-86
2022/12/07 01:16:40;;;;;;;6.73;5.30;;;;;;;;;;4875099;29;20218;-85
2022/12/07 01:19:06;;;;;;;6.53;5.50;;;;;;;;;;4879837;29;20206;-83
2022/12/07 01:21:35;;;;;;;6.90;6.10;;;;;;;;;;4876397;29;20257;-84
2022/12/07 01:24:01;;;;;;;7.07;6.13;;;;;;;;;;4875785;29;20180;-86
2022/12/07 01:26:27;;;;;;;8.57;6.57;;;;;;;;;;4875198;29;20898;-85
2022/12/07 01:28:54;;;;;;;6.50;5.83;;;;;;;;;;4876237;29;20171;-84
2022/12/07 01:31:22;;;;;;;6.63;5.87;;;;;;;;;;4881544;29;20179;-84
2022/12/07 01:33:49;;;;;;;7.33;5.57;;;;;;;;;;4878957;29;20223;-84
2022/12/07 01:36:17;;;;;;;7.13;6.07;;;;;;;;;;4862445;29;20179;-87
2022/12/07 01:38:43;;;;;;;6.53;5.87;;;;;;;;;;4873650;29;20188;-85
2022/12/07 01:41:09;;;;;;;6.63;5.90;;;;;;;;;;4881555;29;20491;-89
2022/12/07 01:43:36;;;;;;;8.03;7.17;;;;;;;;;;4881019;29;20557;-84
2022/12/07 01:46:03;;;;;;;7.67;6.00;;;;;;;;;;4875169;29;20736;-85
2022/12/07 01:48:32;;;;;;;6.20;5.53;;;;;;;;;;4897320;29;20635;-84
2022/12/07 01:51:01;;;;;;;7.53;5.80;;;;;;;;;;4898643;29;20257;-84
2022/12/07 01:53:29;;;;;;;7.80;5.60;;;;;;;;;;4881719;29;20182;-84
2022/12/07 01:55:55;;;;;;;6.30;5.70;;;;;;;;;;4881313;29;20213;-84
2022/12/07 01:58:22;;;;;;;6.50;5.90;;;;;;;;;;4881969;29;20174;-86
2022/12/07 02:00:48;;;;;;;7.80;6.57;;;;;;;;;;4879606;29;20174;-85
2022/12/07 02:03:17;;;;;;;7.20;6.50;;;;;;;;;;4878813;29;20503;-85
2022/12/07 02:05:43;;;;;;;7.90;6.27;;;;;;;;;;4865431;29;20802;-87
2022/12/07 02:08:10;;;;;;;7.63;6.33;;;;;;;;;;4880751;29;20206;-85
2022/12/07 02:10:36;;;;;;;8.60;6.63;;;;;;;;;;4881833;29;20162;-84
2022/12/07 02:13:04;;;;;;;6.50;5.80;;;;;;;;;;4881595;29;20737;-84
2022/12/07 02:15:39;;;;;;;6.37;5.70;;;;;;;;;;4880983;29;20270;-85
2022/12/07 02:18:12;;;;;;;8.50;6.13;;;;;;;;;;4880547;29;20249;-85
2022/12/07 02:20:42;;;;;;;7.00;5.80;;;;;;;;;;4882153;29;20198;-85
2022/12/07 02:23:08;;;;;;;10.20;5.77;;;;;;;;;;4880502;29;20190;-85
2022/12/07 02:25:48;;;;;;;8.40;6.10;;;;;;;;;;4877543;29;20230;-85
2022/12/07 02:28:37;;;;;;;9.03;5.50;;;;;;;;;;4872335;29;20201;-84
2022/12/07 02:31:06;;;;;;;10.67;6.07;;;;;;;;;;4880544;29;20178;-85
2022/12/07 02:33:36;;;;;;;7.70;5.73;;;;;;;;;;4880877;29;20197;-86
2022/12/07 02:36:08;;;;;;;7.57;5.83;;;;;;;;;;4880946;29;20523;-85
2022/12/07 02:38:40;;;;;;;11.23;7.03;;;;;;;;;;4880226;29;20240;-85
2022/12/07 02:41:23;;;;;;;6.37;5.77;;;;;;;;;;4879621;29;20321;-86
2022/12/07 02:43:57;;;;;;;8.37;5.77;;;;;;;;;;4881036;29;20202;-85
2022/12/07 02:46:28;;;;;;;6.53;5.37;;;;;;;;;;4898399;29;20257;-83
2022/12/07 02:48:55;;;;;;;7.50;6.23;;;;;;;;;;4879277;29;20201;-86
2022/12/07 02:51:21;;;;;;;9.07;5.77;;;;;;;;;;4878214;29;20225;-86
2022/12/07 02:53:47;;;;;;;7.60;6.80;;;;;;;;;;4881138;29;20170;-85
2022/12/07 02:56:13;;;;;;;7.97;6.00;;;;;;;;;;4881098;29;20190;-88
2022/12/07 02:58:43;;;;;;;7.90;5.93;;;;;;;;;;4878149;29;20194;-85
2022/12/07 03:01:12;;;;;;;7.90;6.00;;;;;;;;;;4879025;29;20167;-88
2022/12/07 03:03:41;;;;;;;10.47;5.90;;;;;;;;;;4873659;29;20186;-85
2022/12/07 03:06:10;;;;;;;6.63;5.83;;;;;;;;;;4879935;29;20209;-84
2022/12/07 03:08:39;;;;;;;7.93;6.40;;;;;;;;;;4879782;29;20306;-84
2022/12/07 03:11:07;;;;;;;8.60;6.30;;;;;;;;;;4881214;29;20560;-86
2022/12/07 03:13:56;;;;;;;6.57;5.90;;;;;;;;;;4880622;29;20219;-83
2022/12/07 03:16:25;;;;;;;7.03;5.60;;;;;;;;;;4880594;29;20186;-84
2022/12/07 03:18:57;;;;;;;7.03;6.27;;;;;;;;;;4896938;29;20637;-84
2022/12/07 03:21:25;;;;;;;6.47;5.77;;;;;;;;;;4891545;29;20214;-88
2022/12/07 03:23:53;;;;;;;7.43;5.70;;;;;;;;;;4862161;29;20178;-84
2022/12/07 03:26:22;;;;;;;6.43;5.50;;;;;;;;;;4873621;29;20195;-87
2022/12/07 03:28:55;;;;;;;7.27;6.20;;;;;;;;;;4879959;29;20186;-85
2022/12/07 03:31:32;;;;;;;6.37;5.17;;;;;;;;;;4877121;29;20912;-85
2022/12/07 03:33:58;;;;;;;9.53;6.13;;;;;;;;;;4875711;29;20604;-86
2022/12/07 03:36:39;;;;;;;7.20;5.40;;;;;;;;;;4877478;29;20619;-86
2022/12/07 03:39:08;;;;;;;7.00;5.63;;;;;;;;;;4877149;29;20215;-85
2022/12/07 03:41:41;;;;;;;6.93;5.90;;;;;;;;;;4877384;29;20265;-83
2022/12/07 03:44:07;;;;;;;6.20;5.60;;;;;;;;;;4880049;29;20206;-84
2022/12/07 03:46:33;;;;;;;9.27;6.83;;;;;;;;;;4887282;29;20681;-87
2022/12/07 03:49:32;;;;;;;6.70;5.87;;;;;;;;;;4874984;29;20663;-85
2022/12/07 03:52:09;;;;;;;6.60;5.73;;;;;;;;;;4824259;29;20191;-84
2022/12/07 03:54:46;;;;;;;8.00;5.93;;;;;;;;;;4881244;29;20167;-86
2022/12/07 03:57:13;;;;;;;10.17;6.30;;;;;;;;;;4881185;29;20181;-85
2022/12/07 03:59:39;;;;;;;9.07;5.60;;;;;;;;;;4881714;29;20243;-86
2022/12/07 04:02:06;;;;;;;7.70;5.80;;;;;;;;;;4886084;29;20604;-84
2022/12/07 04:04:33;;;;;;;7.20;6.07;;;;;;;;;;4885373;29;20382;-84
2022/12/07 04:06:59;;;;;;;6.57;5.77;;;;;;;;;;4901795;29;20217;-85
2022/12/07 04:09:25;;;;;;;8.33;6.60;;;;;;;;;;4886127;29;20182;-86
2022/12/07 04:11:51;;;;;;;8.63;5.47;;;;;;;;;;4883881;29;20187;-88
2022/12/07 04:14:18;;;;;;;7.00;6.30;;;;;;;;;;4882037;29;20170;-85
2022/12/07 04:16:44;;;;;;;11.87;7.00;;;;;;;;;;4882950;29;20178;-86
2022/12/07 04:19:10;;;;;;;9.30;5.40;;;;;;;;;;4882950;29;20182;-85
2022/12/07 04:21:36;;;;;;;7.20;5.77;;;;;;;;;;4882615;29;21053;-87
2022/12/07 04:24:02;;;;;;;6.97;5.67;;;;;;;;;;4898568;29;20178;-89
2022/12/07 04:26:28;;;;;;;5.67;5.17;;;;;;;;;;4882049;29;20218;-86
2022/12/07 04:28:54;;;;;;;6.50;5.47;;;;;;;;;;4900102;29;20178;-88
2022/12/07 04:31:20;;;;;;;7.03;5.10;;;;;;;;;;4880591;29;20239;-86
2022/12/07 04:33:46;;;;;;;7.77;5.83;;;;;;;;;;4882449;29;20622;-88
2022/12/07 04:36:12;;;;;;;5.73;5.07;;;;;;;;;;4882103;29;20697;-87
2022/12/07 04:38:38;;;;;;;7.33;5.67;;;;;;;;;;4880506;29;20646;-86
2022/12/07 04:41:08;;;;;;;6.97;5.90;;;;;;;;;;4877921;29;20223;-85
2022/12/07 04:43:34;;;;;;;6.50;5.87;;;;;;;;;;4880269;29;20285;-85
2022/12/07 04:46:00;;;;;;;6.47;5.77;;;;;;;;;;4880225;29;20968;-89
2022/12/07 04:48:26;;;;;;;7.17;5.83;;;;;;;;;;4882601;29;20781;-86
2022/12/07 04:50:52;;;;;;;9.17;7.00;;;;;;;;;;4881543;29;20192;-84
2022/12/07 04:53:19;;;;;;;6.63;5.93;;;;;;;;;;4878820;29;20277;-86
2022/12/07 04:55:45;;;;;;;6.90;5.50;;;;;;;;;;4879479;29;20187;-86
2022/12/07 04:58:12;;;;;;;5.50;5.00;;;;;;;;;;4875666;29;20953;-85
2022/12/07 05:00:38;;;;;;;9.17;5.67;;;;;;;;;;4877780;29;20171;-88
2022/12/07 05:03:04;;;;;;;9.27;6.20;;;;;;;;;;4896363;29;20178;-85
2022/12/07 05:05:30;;;;;;;6.40;5.73;;;;;;;;;;4880185;29;20242;-84
2022/12/07 05:07:56;;;;;;;7.27;5.60;;;;;;;;;;4879643;29;20238;-86
2022/12/07 05:10:23;;;;;;;6.53;4.93;;;;;;;;;;4897783;29;20607;-85
2022/12/07 05:12:49;;;;;;;5.83;5.07;;;;;;;;;;4879246;29;20617;-85
2022/12/07 05:15:15;;;;;;;7.07;5.43;;;;;;;;;;4879424;29;20186;-86
2022/12/07 05:17:41;;;;;;;6.97;5.53;;;;;;;;;;4877388;29;20653;-86
2022/12/07 05:20:08;;;;;;;8.33;5.73;;;;;;;;;;4879304;29;20720;-86
2022/12/07 05:22:34;;;;;;;6.33;5.73;;;;;;;;;;4877825;29;20212;-85
2022/12/07 05:25:00;;;;;;;7.07;4.93;;;;;;;;;;4879609;29;20216;-86
2022/12/07 05:27:26;;;;;;;7.30;5.43;;;;;;;;;;4879975;29;20218;-85
2022/12/07 05:29:53;;;;;;;7.20;5.77;;;;;;;;;;4882161;29;20167;-85
2022/12/07 05:32:19;;;;;;;7.00;5.90;;;;;;;;;;4878975;29;20187;-87
2022/12/07 05:34:45;;;;;;;7.37;5.77;;;;;;;;;;4881268;29;20261;-84
2022/12/07 05:37:11;;;;;;;6.50;4.83;;;;;;;;;;4878029;29;20246;-86
2022/12/07 05:39:40;;;;;;;8.37;5.37;;;;;;;;;;4881779;29;20179;-85
2022/12/07 05:42:13;;;;;;;7.20;5.37;;;;;;;;;;4897865;29;20183;-85
2022/12/07 05:44:42;;;;;;;7.17;5.40;;;;;;;;;;4896541;29;20242;-85
2022/12/07 05:47:09;;;;;;;9.63;4.90;;;;;;;;;;4877297;29;20270;-88
2022/12/07 05:49:35;;;;;;;8.67;5.47;;;;;;;;;;4892112;29;20182;-85
2022/12/07 05:52:01;;;;;;;4.90;4.40;;;;;;;;;;4877874;29;20668;-83
2022/12/07 05:54:27;;;;;;;8.60;5.13;;;;;;;;;;4877342;29;20189;-84
2022/12/07 05:56:53;;;;;;;7.47;5.37;;;;;;;;;;4875550;29;20642;-87
2022/12/07 05:59:22;;;;;;;6.43;5.03;;;;;;;;;;4879581;29;20183;-86
2022/12/07 06:01:51;;;;;;;6.50;5.33;;;;;;;;;;4883550;29;20182;-85
2022/12/07 06:04:17;;;;;;;5.17;4.67;;;;;;;;;;4879608;29;20233;-88
2022/12/07 06:06:43;;;;;;;7.43;5.50;;;;;;;;;;4889561;29;20206;-87
2022/12/07 06:09:10;;;;;;;6.03;4.77;;;;;;;;;;4876183;29;20200;-83
2022/12/07 06:14:20;;;;;;;4.90;4.40;;;;;;;;;;4897732;29;20726;-85
2022/12/07 06:16:46;;;;;;;5.90;5.13;;;;;;;;;;4900141;29;20254;-87
2022/12/07 06:19:12;;;;;;;6.33;5.03;;;;;;;;;;4881082;29;20226;-87
2022/12/07 06:21:39;;;;;;;5.67;4.77;;;;;;;;;;4881065;29;20305;-86
2022/12/07 06:24:05;;;;;;;5.57;4.13;;;;;;;;;;4879637;29;20193;-88
2022/12/07 06:26:31;;;;;;;5.27;4.77;;;;;;;;;;4889841;29;20319;-87
2022/12/07 06:28:57;;;;;;;6.83;5.30;;;;;;;;;;4882422;29;20198;-88
2022/12/07 06:31:23;;;;;;;6.07;5.37;;;;;;;;;;4881362;29;20179;-87
2022/12/07 06:33:49;;;;;;;5.43;4.80;;;;;;;;;;4879657;29;20170;-86
2022/12/07 06:36:15;;;;;;;7.03;5.13;;;;;;;;;;4896096;29;20187;-88
2022/12/07 06:38:41;;;;;;;4.47;3.77;;;;;;;;;;4881323;29;20191;-87
2022/12/07 06:41:07;;;;;;;7.13;4.80;;;;;;;;;;4881542;29;20250;-87
2022/12/07 06:43:33;;;;;;;8.73;4.97;;;;;;;;;;4880865;29;20206;-87
2022/12/07 06:46:00;;;;;;;6.67;5.10;;;;;;;;;;4878625;29;20666;-87
2022/12/07 06:48:26;;;;;;;5.53;4.23;;;;;;;;;;4896163;28;20226;-87
2022/12/07 06:50:54;;;;;;;4.73;4.23;;;;;;;;;;4881187;29;20590;-87
2022/12/07 06:53:20;;;;;;;6.50;5.00;;;;;;;;;;4879170;29;20178;-87
2022/12/07 06:55:46;;;;;;;4.93;4.40;;;;;;;;;;4882302;29;20250;-87
2022/12/07 06:58:13;;;;;;;7.17;5.23;;;;;;;;;;4881359;29;20187;-87
2022/12/07 07:00:39;;;;;;;5.40;4.47;;;;;;;;;;4879168;29;20189;-87
2022/12/07 07:03:05;;;;;;;6.63;5.07;;;;;;;;;;4878533;29;20191;-87
2022/12/07 07:05:31;;;;;;;5.93;4.30;;;;;;;;;;4879737;29;20198;-88
2022/12/07 07:07:57;;;;;;;6.20;4.90;;;;;;;;;;4878058;29;20210;-87
2022/12/07 07:10:23;;;;;;;5.97;5.00;;;;;;;;;;4872974;29;20175;-89
2022/12/07 07:12:49;;;;;;;5.30;4.60;;;;;;;;;;4878248;29;20164;-90
2022/12/07 07:15:15;;;;;;;6.60;4.23;;;;;;;;;;4867851;29;20187;-91
2022/12/07 07:17:41;;;;;;;7.00;5.40;;;;;;;;;;4867690;29;20183;-90
2022/12/07 07:20:07;;;;;;;5.57;4.20;;;;;;;;;;4888822;29;20301;-90
2022/12/07 07:22:33;;;;;;;9.27;4.73;;;;;;;;;;4874153;29;20530;-88
2022/12/07 07:24:59;;;;;;;7.23;4.67;;;;;;;;;;4886015;29;20658;-87
2022/12/07 07:27:25;;;;;;;5.23;4.20;;;;;;;;;;4887661;29;20198;-88
2022/12/07 07:29:51;;;;;;;9.07;4.93;;;;;;;;;;4883776;29;20190;-89
2022/12/07 07:32:17;;;;;;;5.30;3.80;;;;;;;;;;4879998;29;20183;-88
2022/12/07 07:34:43;;;;;;;5.03;4.40;;;;;;;;;;4880874;29;20189;-87
2022/12/07 07:37:12;;;;;;;6.40;3.90;;;;;;;;;;4896259;29;20584;-86
2022/12/07 07:39:38;;;;;;;7.23;4.30;;;;;;;;;;4880931;29;20465;-86
2022/12/07 07:42:04;;;;;;;5.27;4.30;;;;;;;;;;4873005;29;20790;-88
2022/12/07 07:44:30;;;;;;;6.00;4.43;;;;;;;;;;4892284;29;20190;-86
2022/12/07 07:46:56;;;;;;;5.83;4.47;;;;;;;;;;4891200;29;20190;-88
2022/12/07 07:49:22;;;;;;;6.10;4.07;;;;;;;;;;4877867;29;20205;-87
2022/12/07 07:51:48;;;;;;;5.10;4.53;;;;;;;;;;4889742;29;20259;-87
2022/12/07 07:54:14;;;;;;;5.20;3.93;;;;;;;;;;4876560;29;20186;-85
2022/12/07 07:56:41;;;;;;;3.87;3.53;;;;;;;;;;4879801;29;20187;-86
2022/12/07 07:59:07;;;;;;;5.17;4.30;;;;;;;;;;4880594;29;20186;-86
2022/12/07 08:01:33;;;;;;;6.07;4.67;;;;;;;;;;4877653;29;20250;-87
2022/12/07 08:03:59;;;;;;;6.03;4.30;;;;;;;;;;4877516;29;20178;-85
2022/12/07 08:06:25;;;;;;;4.63;3.77;;;;;;;;;;4878754;29;20222;-86
2022/12/07 08:08:51;;;;;;;6.23;4.20;;;;;;;;;;4878851;29;20178;-87
2022/12/07 08:11:17;;;;;;;4.67;4.17;;;;;;;;;;4875254;29;20202;-86
2022/12/07 08:13:46;;;;;;;6.07;4.80;;;;;;;;;;4876673;29;20182;-86
2022/12/07 08:16:12;;;;;;;5.10;3.87;;;;;;;;;;4880356;29;20209;-87
2022/12/07 08:18:39;;;;;;;5.83;4.33;;;;;;;;;;4876741;29;20191;-87
2022/12/07 08:21:05;;;;;;;7.90;5.10;;;;;;;;;;4877576;29;20322;-86
2022/12/07 08:23:31;;;;;;;4.43;3.77;;;;;;;;;;4874820;29;20202;-86
2022/12/07 08:26:01;;;;;;;4.10;3.70;;;;;;;;;;4879501;29;20501;-86
2022/12/07 08:28:28;;;;;;;4.57;4.17;;;;;;;;;;4879048;29;20531;-86
2022/12/07 08:31:01;;;;;;;4.10;3.67;;;;;;;;;;4877266;29;20179;-86
2022/12/07 08:33:27;;;;;;;5.03;3.60;;;;;;;;;;4892131;29;20209;-86
2022/12/07 08:35:54;;;;;;;5.93;4.13;;;;;;;;;;4878087;29;20528;-88
2022/12/07 08:38:20;;;;;;;4.43;3.93;;;;;;;;;;4875376;29;20185;-89
2022/12/07 08:40:46;;;;;;;4.30;3.90;;;;;;;;;;4891374;29;20764;-89
2022/12/07 08:43:12;;;;;;;6.93;4.17;;;;;;;;;;4894398;29;20209;-86
2022/12/07 08:45:40;;;;;;;5.50;4.17;;;;;;;;;;4876496;29;20206;-87
2022/12/07 08:48:07;;;;;;;6.03;3.90;;;;;;;;;;4890685;28;20245;-88
2022/12/07 08:50:34;;;;;;;5.37;3.50;;;;;;;;;;4877785;29;20194;-89
2022/12/07 08:53:01;;;;;;;4.77;3.70;;;;;;;;;;4891066;29;20238;-87
2022/12/07 08:55:29;;;;;;;6.60;3.90;;;;;;;;;;4892974;29;20517;-86
2022/12/07 08:57:55;;;;;;;3.90;3.30;;;;;;;;;;4884004;29;20946;-87
2022/12/07 09:00:22;;;;;;;5.80;3.33;;;;;;;;;;4875867;29;20236;-88
2022/12/07 09:02:48;;;;;;;5.30;3.60;;;;;;;;;;4891149;29;20183;-88
2022/12/07 09:05:17;;;;;;;6.13;4.03;;;;;;;;;;4872911;29;20195;-86
2022/12/07 09:07:44;;;;;;;7.23;3.77;;;;;;;;;;4890400;29;20230;-87
2022/12/07 09:10:10;;;;;;;5.23;3.40;;;;;;;;;;4887307;29;20175;-86
2022/12/07 09:12:36;;;;;;;4.37;3.03;;;;;;;;;;4894054;29;20175;-86
2022/12/07 09:15:02;;;;;;;7.57;3.10;;;;;;;;;;4878116;29;20187;-89
2022/12/07 09:17:32;;;;;;;5.77;3.73;;;;;;;;;;4881197;29;20189;-85
2022/12/07 09:19:58;;;;;;;4.20;3.80;;;;;;;;;;4878789;29;20277;-87
2022/12/07 09:22:24;;;;;;;3.50;3.00;;;;;;;;;;4877372;29;20612;-86
2022/12/07 09:24:50;;;;;;;5.30;3.60;;;;;;;;;;4896329;29;20636;-86
2022/12/07 09:27:17;;;;;;;4.23;3.47;;;;;;;;;;4879319;29;20210;-87
2022/12/07 09:29:49;;;;;;;4.03;3.37;;;;;;;;;;4875925;29;20207;-88
2022/12/07 09:32:15;;;;;;;4.57;3.00;;;;;;;;;;4877748;29;20209;-88
2022/12/07 09:34:42;;;;;;;7.03;3.73;;;;;;;;;;4893511;29;20182;-86
2022/12/07 09:37:08;;;;;;;3.67;3.33;;;;;;;;;;4876849;29;20337;-88
2022/12/07 09:39:34;;;;;;;6.93;3.73;;;;;;;;;;4874997;29;20221;-87
2022/12/07 09:42:03;;;;;;;5.17;3.57;;;;;;;;;;4888952;29;20529;-87
2022/12/07 09:44:29;;;;;;;3.70;3.27;;;;;;;;;;4877611;29;20530;-87
2022/12/07 09:46:56;;;;;;;6.03;3.03;;;;;;;;;;4878138;29;20658;-85
2022/12/07 09:49:27;;;;;;;4.23;3.17;;;;;;;;;;4894871;29;20635;-87
2022/12/07 09:52:02;;;;;;;6.23;3.60;;;;;;;;;;4881193;29;20662;-89
2022/12/07 09:54:30;;;;;;;4.60;3.60;;;;;;;;;;4878601;29;20178;-88
2022/12/07 09:56:56;;;;;;;3.57;2.77;;;;;;;;;;4895596;29;20179;-87
2022/12/07 09:59:22;;;;;;;3.57;3.10;;;;;;;;;;4879735;29;20190;-88
2022/12/07 10:01:49;;;;;;;4.17;3.07;;;;;;;;;;4878168;29;20183;-86
2022/12/07 10:04:25;;;;;;;7.60;3.67;;;;;;;;;;4898108;29;20190;-87
2022/12/07 10:06:52;;;;;;;4.30;3.33;;;;;;;;;;4882049;29;20285;-88
2022/12/07 10:09:19;;;;;;;3.23;2.87;;;;;;;;;;4895081;29;20704;-86
2022/12/07 10:12:04;;;;;;;3.67;3.03;;;;;;;;;;4897749;29;20274;-87
2022/12/07 10:14:31;;;;;;;5.30;3.03;;;;;;;;;;4878305;29;20795;-87
2022/12/07 10:16:57;;;;;;;4.63;3.27;;;;;;;;;;4894970;29;20662;-86
2022/12/07 10:19:25;;;;;;;4.17;3.43;;;;;;;;;;4878165;29;20225;-87
2022/12/07 10:22:11;;;;;;;4.60;3.70;;;;;;;;;;4878083;29;20189;-87
2022/12/07 10:24:40;;;;;;;4.10;3.70;;;;;;;;;;4891705;29;20178;-87
2022/12/07 10:27:17;;;;;;;7.43;3.27;;;;;;;;;;4876140;29;20829;-87
2022/12/07 10:29:47;;;;;;;5.10;3.20;;;;;;;;;;4882381;29;20198;-87
2022/12/07 10:32:16;;;;;;;4.83;3.00;;;;;;;;;;4896918;29;20183;-87
2022/12/07 10:34:42;;;;;;;3.90;3.47;;;;;;;;;;4881185;29;20194;-88
2022/12/07 10:37:15;;;;;;;3.40;3.07;;;;;;;;;;4889236;29;20189;-88
2022/12/07 10:39:43;;;;;;;3.50;2.93;;;;;;;;;;4903344;29;20198;-87
2022/12/07 10:42:16;;;;;;;5.70;3.20;;;;;;;;;;4883626;29;20186;-87
2022/12/07 10:44:43;;;;;;;2.53;2.33;;;;;;;;;;4896286;29;20191;-87
2022/12/07 10:47:17;;;;;;;4.07;2.80;;;;;;;;;;4898084;29;20198;-86
2022/12/07 10:49:55;;;;;;;6.07;3.60;;;;;;;;;;4880908;29;20222;-87
2022/12/07 10:52:31;;;;;;;7.57;3.60;;;;;;;;;;4897635;29;20205;-86
2022/12/07 10:55:26;;;;;;;4.90;3.23;;;;;;;;;;4882998;29;20414;-88
2022/12/07 10:58:01;;;;;;;3.63;3.03;;;;;;;;;;4827818;29;20201;-87
2022/12/07 11:00:31;;;;;;;2.83;2.57;;;;;;;;;;4877972;29;20202;-88
2022/12/07 11:03:00;;;;;;;6.30;3.07;;;;;;;;;;4877912;29;20183;-87
2022/12/07 11:05:46;;;;;;;6.33;2.93;;;;;;;;;;4876282;29;20435;-87
2022/12/07 11:08:30;;;;;;;6.50;3.30;;;;;;;;;;4884566;29;20248;-84
2022/12/07 11:11:00;;;;;;;3.30;2.93;;;;;;;;;;4874509;29;20613;-86
2022/12/07 11:13:45;;;;;;;4.23;2.60;;;;;;;;;;4874919;29;20182;-87
2022/12/07 11:16:21;;;;;;;3.47;2.53;;;;;;;;;;4872014;29;20178;-87
2022/12/07 11:18:47;;;;;;;4.20;3.00;;;;;;;;;;4892089;29;20186;-87
2022/12/07 11:21:20;;;;;;;6.07;2.90;;;;;;;;;;4894481;29;20187;-87
2022/12/07 11:23:53;;;;;;;3.23;2.90;;;;;;;;;;4881590;29;20387;-87
2022/12/07 11:26:22;;;;;;;3.10;2.80;;;;;;;;;;4885816;29;20198;-86
2022/12/07 11:29:02;;;;;;;4.73;3.30;;;;;;;;;;4885466;29;20270;-88
2022/12/07 11:31:31;;;;;;;5.97;2.93;;;;;;;;;;4881500;29;20191;-86
2022/12/07 11:34:08;;;;;;;4.73;2.43;;;;;;;;;;4879578;29;20183;-87
2022/12/07 11:36:34;;;;;;;10.83;3.10;;;;;;;;;;4884615;29;20730;-85
2022/12/07 11:39:02;;;;;;;4.43;2.90;;;;;;;;;;4880427;29;20189;-87
2022/12/07 11:41:35;;;;;;;2.43;2.23;;;;;;;;;;4880936;29;20183;-86
2022/12/07 11:44:13;;;;;;;4.30;2.57;;;;;;;;;;4889513;29;20222;-87
2022/12/07 11:46:59;;;;;;;5.90;2.10;;;;;;;;;;4880190;29;20202;-88
2022/12/07 11:49:38;;;;;;;4.20;2.40;;;;;;;;;;4888442;29;20218;-87
2022/12/07 11:52:06;;;;;;;5.27;2.50;;;;;;;;;;4888299;29;20174;-89
2022/12/07 11:54:35;;;;;;;5.00;2.30;;;;;;;;;;4899824;29;20214;-88
2022/12/07 11:57:04;;;;;;;7.03;2.20;;;;;;;;;;4885083;29;20190;-88
2022/12/07 11:59:37;;;;;;;2.47;2.17;;;;;;;;;;4883108;29;20278;-88
2022/12/07 12:02:16;;;;;;;2.97;2.30;;;;;;;;;;4880778;29;20190;-89
2022/12/07 12:04:48;;;;;;;2.60;2.07;;;;;;;;;;4880958;29;20273;-89
2022/12/07 12:07:17;;;;;;;4.60;2.20;;;;;;;;;;4893370;29;20198;-87
2022/12/07 12:09:55;;;;;;;3.27;2.07;;;;;;;;;;4893592;29;20194;-87
2022/12/07 12:12:24;;;;;;;2.87;2.13;;;;;;;;;;4901555;29;20182;-89
2022/12/07 12:15:00;;;;;;;5.73;2.10;;;;;;;;;;4886447;29;20199;-88
2022/12/07 12:17:32;;;;;;;2.97;2.20;;;;;;;;;;4876983;29;20190;-89
2022/12/07 12:20:17;;;;;;;2.63;1.97;;;;;;;;;;4894931;29;20197;-89
2022/12/07 12:22:45;;;;;;;2.40;1.87;;;;;;;;;;4878922;29;20610;-87
2022/12/07 12:25:22;;;;;;;4.33;1.73;;;;;;;;;;4879840;29;20210;-89
2022/12/07 12:27:49;;;;;;;2.67;2.10;;;;;;;;;;4894888;29;20202;-90
2022/12/07 12:30:31;;;;;;;4.13;1.90;;;;;;;;;;4880256;29;20193;-89
2022/12/07 12:33:02;;;;;;;2.43;2.20;;;;;;;;;;4886715;29;20182;-88
2022/12/07 12:35:34;;;;;;;3.53;2.00;;;;;;;;;;4896788;29;20561;-89
2022/12/07 12:38:18;;;;;;;2.83;2.00;;;;;;;;;;4884131;29;20689;-88
2022/12/07 12:40:45;;;;;;;2.73;1.60;;;;;;;;;;4876053;29;20186;-88
2022/12/07 12:43:29;;;;;;;2.70;2.00;;;;;;;;;;4877768;29;20523;-89
2022/12/07 12:46:14;;;;;;;1.70;1.60;;;;;;;;;;4891033;29;20554;-89
2022/12/07 12:48:40;;;;;;;2.23;2.03;;;;;;;;;;4888246;29;20372;-89
2022/12/07 12:51:25;;;;;;;1.80;1.70;;;;;;;;;;4879964;29;20190;-89
2022/12/07 12:53:52;;;;;;;5.63;1.80;;;;;;;;;;4878617;29;20206;-89
2022/12/07 12:56:41;;;;;;;4.90;2.07;;;;;;;;;;4895965;29;20261;-90
2022/12/07 12:59:24;;;;;;;3.30;1.60;;;;;;;;;;4895600;29;20705;-88
2022/12/07 13:01:51;;;;;;;3.53;1.90;;;;;;;;;;4886074;29;20182;-89
2022/12/07 13:04:28;;;;;;;3.33;2.27;;;;;;;;;;4878834;29;20179;-88
2022/12/07 13:06:54;;;;;;;3.90;1.90;;;;;;;;;;4880351;29;20190;-89
2022/12/07 13:09:29;;;;;;;1.80;1.70;;;;;;;;;;4877753;29;20194;-88
2022/12/07 13:12:00;;;;;;;1.40;1.30;;;;;;;;;;4890942;29;20237;-86
2022/12/07 13:14:46;;;;;;;4.53;1.50;;;;;;;;;;4902715;29;20526;-87
2022/12/07 13:17:32;;;;;;;2.43;1.23;;;;;;;;;;4877096;29;20191;-85
2022/12/07 13:20:03;;;;;;;2.17;1.67;;;;;;;;;;4851708;29;20210;-85
2022/12/07 13:22:39;;;;;;;2.30;1.43;;;;;;;;;;4876998;29;20186;-86
2022/12/07 13:25:08;;;;;;;3.87;1.87;;;;;;;;;;4894617;29;20326;-87
2022/12/07 13:27:35;;;;;;;1.67;1.57;;;;;;;;;;4876784;29;20265;-87
2022/12/07 13:30:01;;;;;;;3.00;1.80;;;;;;;;;;4879676;29;20171;-85
2022/12/07 13:32:29;;;;;;;3.63;1.43;;;;;;;;;;4886100;29;20655;-85
2022/12/07 13:34:55;;;;;;;2.20;1.70;;;;;;;;;;4880888;29;20596;-86
2022/12/07 13:37:21;;;;;;;1.97;1.47;;;;;;;;;;4878542;29;20198;-86
2022/12/07 13:39:49;;;;;;;4.13;2.00;;;;;;;;;;4879430;29;20191;-85
2022/12/07 13:42:36;;;;;;;2.07;1.80;;;;;;;;;;4875318;29;20686;-86
2022/12/07 13:45:47;;;;;;;2.80;2.10;;;;;;;;;;4881127;29;20246;-86
2022/12/07 13:48:10;;;;;;;2.20;2.00;;;;;;;;;;4895964;29;20308;-85
2022/12/07 13:50:36;;;;;;;3.40;1.47;;;;;;;;;;4878551;29;20194;-86
2022/12/07 13:53:08;;;;;;;3.50;1.97;;;;;;;;;;4891967;29;20187;-87
2022/12/07 13:55:34;;;;;;;2.43;1.50;;;;;;;;;;4894312;29;20183;-86
2022/12/07 13:58:01;;;;;;;4.23;2.23;;;;;;;;;;4879099;29;20183;-87
2022/12/07 14:00:28;;;;;;;3.53;1.60;;;;;;;;;;4879789;29;20626;-86
2022/12/07 14:03:02;;;;;;;2.93;1.90;;;;;;;;;;4878680;29;20277;-88
2022/12/07 14:05:30;;;;;;;3.47;2.13;;;;;;;;;;4889673;29;20196;-86
2022/12/07 14:07:58;;;;;;;3.43;1.80;;;;;;;;;;4891417;29;20234;-87
2022/12/07 14:10:30;;;;;;;1.70;1.60;;;;;;;;;;4878612;29;20198;-87
2022/12/07 14:12:57;;;;;;;2.40;1.77;;;;;;;;;;4877570;29;20299;-86
2022/12/07 14:15:25;;;;;;;3.67;1.87;;;;;;;;;;4876017;29;20278;-88
2022/12/07 14:17:52;;;;;;;2.00;1.80;;;;;;;;;;4875491;29;20710;-85
2022/12/07 14:20:37;;;;;;;4.83;1.33;;;;;;;;;;4888047;29;20836;-87
2022/12/07 14:23:08;;;;;;;3.07;1.73;;;;;;;;;;4890041;29;20181;-87
2022/12/07 14:25:48;;;;;;;4.73;1.60;;;;;;;;;;4887685;29;20186;-88
2022/12/07 14:28:28;;;;;;;2.67;2.13;;;;;;;;;;4891825;29;20270;-88
2022/12/07 14:30:54;;;;;;;3.63;1.90;;;;;;;;;;4875698;29;20191;-83
2022/12/07 14:33:21;;;;;;;2.00;1.77;;;;;;;;;;4873781;29;20251;-85
2022/12/07 14:35:49;;;;;;;3.80;1.57;;;;;;;;;;4874527;29;20218;-83
2022/12/07 14:38:15;;;;;;;2.67;1.87;;;;;;;;;;4877347;29;20194;-86
2022/12/07 14:40:41;;;;;;;2.70;1.67;;;;;;;;;;4876872;29;20187;-87
2022/12/07 14:43:11;;;;;;;2.53;1.87;;;;;;;;;;4892194;29;20214;-87
2022/12/07 14:45:39;;;;;;;2.83;1.60;;;;;;;;;;4878556;29;20536;-86
2022/12/07 14:48:05;;;;;;;6.10;2.13;;;;;;;;;;4895770;28;20242;-89
2022/12/07 14:50:35;;;;;;;4.40;1.73;;;;;;;;;;4879013;29;20175;-87
2022/12/07 14:53:06;;;;;;;5.50;1.80;;;;;;;;;;4881151;29;20182;-87
2022/12/07 14:55:32;;;;;;;1.93;1.57;;;;;;;;;;4875336;29;20622;-88
2022/12/07 14:57:58;;;;;;;1.67;1.43;;;;;;;;;;4880705;29;20190;-88